createdAt,value
2023-03-31T00:00:03.145Z,11.24
2023-03-31T00:01:06.917Z,11.23
2023-03-31T00:02:08.993Z,11.23
2023-03-31T00:03:11.168Z,11.22
2023-03-31T00:04:13.743Z,11.22
2023-03-31T00:05:16.533Z,11.20
2023-03-31T00:06:20.239Z,11.19
2023-03-31T00:07:22.577Z,11.18
2023-03-31T00:08:26.433Z,11.18
2023-03-31T00:09:28.469Z,11.15
2023-03-31T00:10:31.542Z,11.14
2023-03-31T00:11:33.532Z,11.13
2023-03-31T00:12:35.524Z,11.13
2023-03-31T00:13:37.687Z,11.12
2023-03-31T00:14:39.730Z,11.11
2023-03-31T00:15:41.624Z,11.11
2023-03-31T00:16:43.789Z,11.11
2023-03-31T00:17:45.884Z,11.11
2023-03-31T00:18:48.169Z,11.10
2023-03-31T00:19:50.144Z,11.10
2023-03-31T00:20:53.992Z,11.10
2023-03-31T00:21:56.042Z,11.08
2023-03-31T00:22:58.095Z,11.09
2023-03-31T00:24:05.385Z,11.08
2023-03-31T00:25:09.019Z,11.09
2023-03-31T00:26:11.342Z,11.10
2023-03-31T00:27:13.283Z,11.10
2023-03-31T00:28:15.680Z,11.10
2023-03-31T00:29:18.337Z,11.11
2023-03-31T00:30:20.551Z,11.11
2023-03-31T00:31:22.717Z,11.12
2023-03-31T00:32:24.861Z,11.12
2023-03-31T00:33:27.463Z,11.13
2023-03-31T00:34:29.412Z,11.14
2023-03-31T00:35:31.370Z,11.14
2023-03-31T00:36:33.723Z,11.15
2023-03-31T00:37:35.664Z,11.14
2023-03-31T00:38:37.751Z,11.14
2023-03-31T00:39:39.817Z,11.15
2023-03-31T00:40:44.921Z,11.13
2023-03-31T00:41:47.466Z,11.14
2023-03-31T00:42:49.981Z,11.13
2023-03-31T00:44:11.579Z,11.12
2023-03-31T00:45:17.470Z,11.12
2023-03-31T00:46:22.341Z,11.12
2023-03-31T00:47:24.524Z,11.12
2023-03-31T00:48:26.577Z,11.11
2023-03-31T00:49:31.379Z,11.12
2023-03-31T00:50:36.613Z,11.12
2023-03-31T00:51:39.087Z,11.11
2023-03-31T00:52:42.216Z,11.12
2023-03-31T00:53:45.822Z,11.12
2023-03-31T00:54:50.541Z,11.12
2023-03-31T00:55:54.544Z,11.13
2023-03-31T00:56:56.684Z,11.13
2023-03-31T00:57:59.012Z,11.14
2023-03-31T00:59:03.474Z,11.14
2023-03-31T01:00:08.455Z,11.13
2023-03-31T01:01:13.748Z,11.14
2023-03-31T01:02:15.910Z,11.14
2023-03-31T01:03:17.989Z,11.15
2023-03-31T01:04:20.158Z,11.15
2023-03-31T01:06:34.072Z,11.25
2023-03-31T01:08:49.525Z,11.26
2023-03-31T01:09:52.543Z,11.15
2023-03-31T01:10:58.288Z,11.15
2023-03-31T01:13:19.171Z,11.26
2023-03-31T01:14:21.100Z,11.15
2023-03-31T01:15:23.020Z,11.15
2023-03-31T01:16:26.231Z,11.15
2023-03-31T01:17:28.905Z,11.14
2023-03-31T01:18:31.049Z,11.13
2023-03-31T01:21:19.096Z,11.21
2023-03-31T01:22:42.325Z,11.11
2023-03-31T01:23:54.464Z,11.09
2023-03-31T01:25:12.243Z,11.08
2023-03-31T01:26:38.838Z,11.07
2023-03-31T01:28:04.546Z,11.06
2023-03-31T01:29:16.428Z,11.05
2023-03-31T01:30:51.030Z,11.04
2023-03-31T01:32:02.398Z,11.02
2023-03-31T01:33:11.320Z,11.01
2023-03-31T01:34:25.552Z,11.00
2023-03-31T01:35:49.678Z,10.97
2023-03-31T01:37:18.316Z,10.96
2023-03-31T01:38:42.331Z,10.93
2023-03-31T01:40:06.266Z,10.91
2023-03-31T01:44:00.632Z,10.97
2023-03-31T01:45:23.531Z,10.86
2023-03-31T01:46:36.817Z,10.85
2023-03-31T01:47:43.396Z,10.84
2023-03-31T01:48:49.274Z,10.83
2023-03-31T01:50:04.772Z,10.82
2023-03-31T01:51:19.388Z,10.83
2023-03-31T01:52:46.610Z,10.81
2023-03-31T01:54:01.126Z,10.81
2023-03-31T01:56:33.962Z,10.90
2023-03-31T01:57:38.975Z,10.79
2023-03-31T01:58:48.446Z,10.78
2023-03-31T02:00:10.168Z,10.78
2023-03-31T02:01:36.293Z,10.77
2023-03-31T02:02:44.329Z,10.74
2023-03-31T02:03:49.881Z,10.75
2023-03-31T02:04:55.188Z,10.73
2023-03-31T02:06:00.272Z,10.73
2023-03-31T02:07:05.607Z,10.73
2023-03-31T02:08:12.898Z,10.74
2023-03-31T02:09:20.784Z,10.72
2023-03-31T02:10:23.705Z,10.73
2023-03-31T02:11:26.346Z,10.73
2023-03-31T02:12:30.577Z,10.72
2023-03-31T02:13:32.687Z,10.72
2023-03-31T02:14:35.255Z,10.72
2023-03-31T02:15:38.902Z,10.72
2023-03-31T02:16:42.515Z,10.72
2023-03-31T02:17:45.111Z,10.73
2023-03-31T02:18:48.959Z,10.73
2023-03-31T02:19:52.170Z,10.73
2023-03-31T02:20:54.386Z,10.74
2023-03-31T02:21:56.323Z,10.75
2023-03-31T02:22:58.706Z,10.75
2023-03-31T02:24:03.357Z,10.75
2023-03-31T02:25:06.020Z,10.74
2023-03-31T02:27:45.957Z,10.84
2023-03-31T02:28:48.429Z,10.73
2023-03-31T02:29:50.494Z,10.72
2023-03-31T02:31:07.879Z,10.73
2023-03-31T02:33:40.576Z,10.83
2023-03-31T02:34:42.936Z,10.70
2023-03-31T02:35:44.972Z,10.71
2023-03-31T02:36:47.082Z,10.69
2023-03-31T02:37:49.445Z,10.70
2023-03-31T02:40:09.440Z,10.79
2023-03-31T02:41:11.970Z,10.68
2023-03-31T02:42:14.414Z,10.67
2023-03-31T02:43:16.485Z,10.66
2023-03-31T02:44:19.066Z,10.66
2023-03-31T02:45:45.622Z,10.66
2023-03-31T02:46:48.122Z,10.65
2023-03-31T02:47:50.128Z,10.65
2023-03-31T02:48:55.139Z,10.65
2023-03-31T02:49:58.953Z,10.66
2023-03-31T02:51:22.582Z,10.67
2023-03-31T02:52:31.305Z,10.67
2023-03-31T02:53:55.876Z,10.68
2023-03-31T02:55:20.056Z,10.71
2023-03-31T02:56:28.732Z,10.73
2023-03-31T02:57:53.020Z,10.76
2023-03-31T02:59:21.642Z,10.77
2023-03-31T03:00:57.581Z,10.78
2023-03-31T03:02:20.777Z,10.79
2023-03-31T03:03:43.671Z,10.80
2023-03-31T03:04:58.714Z,10.79
2023-03-31T03:06:19.874Z,10.78
2023-03-31T03:07:36.192Z,10.78
2023-03-31T03:10:15.629Z,10.84
2023-03-31T03:11:34.158Z,10.70
2023-03-31T03:13:17.080Z,10.68
2023-03-31T03:14:41.447Z,10.65
2023-03-31T03:17:16.974Z,10.68
2023-03-31T03:18:18.881Z,10.55
2023-03-31T03:19:21.728Z,10.52
2023-03-31T03:20:23.915Z,10.50
2023-03-31T03:21:26.475Z,10.48
2023-03-31T03:22:28.422Z,10.46
2023-03-31T03:23:30.311Z,10.43
2023-03-31T03:24:32.294Z,10.42
2023-03-31T03:25:34.567Z,10.41
2023-03-31T03:26:36.529Z,10.39
2023-03-31T03:27:38.532Z,10.36
2023-03-31T03:28:40.472Z,10.36
2023-03-31T03:29:42.923Z,10.32
2023-03-31T03:30:45.139Z,10.31
2023-03-31T03:31:47.158Z,10.30
2023-03-31T03:32:49.395Z,10.28
2023-03-31T03:33:51.514Z,10.27
2023-03-31T03:34:53.478Z,10.26
2023-03-31T03:35:55.464Z,10.24
2023-03-31T03:36:57.494Z,10.23
2023-03-31T03:37:59.429Z,10.22
2023-03-31T03:39:02.141Z,10.21
2023-03-31T03:40:05.942Z,10.19
2023-03-31T03:41:07.956Z,10.18
2023-03-31T03:42:09.902Z,10.17
2023-03-31T03:43:11.800Z,10.16
2023-03-31T03:44:13.829Z,10.15
2023-03-31T03:45:16.367Z,10.16
2023-03-31T03:46:18.338Z,10.16
2023-03-31T03:47:20.306Z,10.15
2023-03-31T03:48:22.198Z,10.15
2023-03-31T03:49:24.196Z,10.14
2023-03-31T03:50:26.479Z,10.11
2023-03-31T03:51:28.436Z,10.11
2023-03-31T03:52:30.760Z,10.10
2023-03-31T03:53:32.654Z,10.09
2023-03-31T03:54:35.127Z,10.09
2023-03-31T03:55:37.692Z,10.07
2023-03-31T03:56:39.638Z,10.07
2023-03-31T03:57:41.651Z,10.06
2023-03-31T03:58:43.589Z,10.05
2023-03-31T03:59:45.568Z,10.05
2023-03-31T04:00:47.624Z,10.05
2023-03-31T04:01:49.695Z,10.04
2023-03-31T04:02:51.654Z,10.05
2023-03-31T04:03:53.696Z,10.03
2023-03-31T04:04:55.683Z,10.04
2023-03-31T04:05:57.714Z,10.03
2023-03-31T04:06:59.681Z,10.04
2023-03-31T04:08:02.087Z,10.04
2023-03-31T04:09:04.345Z,10.05
2023-03-31T04:10:08.034Z,10.07
2023-03-31T04:11:17.372Z,10.08
2023-03-31T04:12:18.655Z,10.09
2023-03-31T04:13:20.702Z,10.09
2023-03-31T04:14:22.674Z,10.08
2023-03-31T04:15:25.183Z,10.10
2023-03-31T04:16:29.873Z,10.11
2023-03-31T04:17:33.094Z,10.12
2023-03-31T04:18:35.462Z,10.12
2023-03-31T04:19:37.442Z,10.12
2023-03-31T04:20:43.165Z,10.14
2023-03-31T04:21:46.155Z,10.13
2023-03-31T04:22:48.804Z,10.15
2023-03-31T04:23:52.159Z,10.16
2023-03-31T04:24:55.240Z,10.17
2023-03-31T04:25:58.136Z,10.16
2023-03-31T04:27:00.358Z,10.16
2023-03-31T04:28:02.829Z,10.17
2023-03-31T04:29:06.098Z,10.18
2023-03-31T04:30:10.142Z,10.18
2023-03-31T04:31:13.966Z,10.19
2023-03-31T04:32:16.086Z,10.19
2023-03-31T04:33:18.049Z,10.19
2023-03-31T04:34:19.932Z,10.20
2023-03-31T04:35:23.515Z,10.19
2023-03-31T04:36:26.058Z,10.19
2023-03-31T04:37:30.112Z,10.18
2023-03-31T04:38:32.253Z,10.19
2023-03-31T04:39:35.338Z,10.20
2023-03-31T04:40:37.345Z,10.20
2023-03-31T04:41:39.892Z,10.20
2023-03-31T04:42:43.249Z,10.21
2023-03-31T04:43:45.862Z,10.22
2023-03-31T04:44:47.811Z,10.21
2023-03-31T04:45:49.858Z,10.23
2023-03-31T04:46:54.607Z,10.24
2023-03-31T04:47:56.645Z,10.24
2023-03-31T04:48:58.757Z,10.24
2023-03-31T04:50:00.653Z,10.24
2023-03-31T04:51:02.944Z,10.24
2023-03-31T04:52:04.952Z,10.23
2023-03-31T04:53:06.984Z,10.25
2023-03-31T04:54:08.970Z,10.24
2023-03-31T04:55:10.866Z,10.24
2023-03-31T04:56:13.124Z,10.24
2023-03-31T04:57:15.076Z,10.24
2023-03-31T04:58:17.075Z,10.25
2023-03-31T04:59:18.970Z,10.25
2023-03-31T05:00:21.959Z,10.25
2023-03-31T05:01:24.655Z,10.25
2023-03-31T05:02:26.818Z,10.25
2023-03-31T05:03:29.385Z,10.25
2023-03-31T05:04:31.649Z,10.24
2023-03-31T05:05:33.678Z,10.24
2023-03-31T05:06:35.564Z,10.24
2023-03-31T05:07:37.952Z,10.24
2023-03-31T05:08:39.914Z,10.25
2023-03-31T05:09:41.801Z,10.26
2023-03-31T05:10:43.842Z,10.26
2023-03-31T05:11:45.905Z,10.27
2023-03-31T05:12:48.422Z,10.26
2023-03-31T05:13:50.408Z,10.28
2023-03-31T05:14:52.448Z,10.29
2023-03-31T05:15:54.343Z,10.30
2023-03-31T05:16:56.264Z,10.31
2023-03-31T05:17:58.831Z,10.32
2023-03-31T05:19:00.839Z,10.32
2023-03-31T05:20:03.259Z,10.32
2023-03-31T05:21:11.080Z,10.33
2023-03-31T05:22:13.061Z,10.34
2023-03-31T05:23:15.409Z,10.33
2023-03-31T05:24:17.485Z,10.34
2023-03-31T05:25:19.491Z,10.35
2023-03-31T05:26:21.764Z,10.36
2023-03-31T05:27:23.687Z,10.35
2023-03-31T05:28:25.585Z,10.35
2023-03-31T05:29:27.704Z,10.35
2023-03-31T05:30:29.760Z,10.34
2023-03-31T05:31:31.844Z,10.35
2023-03-31T05:32:34.208Z,10.34
2023-03-31T05:33:36.660Z,10.35
2023-03-31T05:34:39.757Z,10.35
2023-03-31T05:35:41.897Z,10.36
2023-03-31T05:36:43.922Z,10.36
2023-03-31T05:37:47.960Z,10.36
2023-03-31T05:38:49.986Z,10.36
2023-03-31T05:39:52.100Z,10.36
2023-03-31T05:40:55.171Z,10.37
2023-03-31T05:41:57.174Z,10.37
2023-03-31T05:42:59.119Z,10.37
2023-03-31T05:44:01.007Z,10.37
2023-03-31T05:45:03.466Z,10.37
2023-03-31T05:46:06.317Z,10.36
2023-03-31T05:47:08.827Z,10.37
2023-03-31T05:48:10.811Z,10.38
2023-03-31T05:49:12.972Z,10.37
2023-03-31T05:50:16.117Z,10.38
2023-03-31T05:51:18.061Z,10.38
2023-03-31T05:52:20.126Z,10.38
2023-03-31T05:53:22.105Z,10.39
2023-03-31T05:54:24.306Z,10.41
2023-03-31T05:55:26.264Z,10.42
2023-03-31T05:56:28.337Z,10.43
2023-03-31T05:57:30.422Z,10.45
2023-03-31T05:58:34.191Z,10.46
2023-03-31T05:59:36.738Z,10.46
2023-03-31T06:00:38.692Z,10.46
2023-03-31T06:01:40.799Z,10.46
2023-03-31T06:02:43.026Z,10.46
2023-03-31T06:03:46.070Z,10.47
2023-03-31T06:04:48.514Z,10.48
2023-03-31T06:05:51.016Z,10.48
2023-03-31T06:06:52.970Z,10.49
2023-03-31T06:07:55.620Z,10.48
2023-03-31T06:08:57.581Z,10.49
2023-03-31T06:09:59.529Z,10.49
2023-03-31T06:12:19.678Z,10.61
2023-03-31T06:13:21.625Z,10.51
2023-03-31T06:14:24.908Z,10.51
2023-03-31T06:15:26.820Z,10.52
2023-03-31T06:16:28.895Z,10.53
2023-03-31T06:17:31.447Z,10.53
2023-03-31T06:18:34.692Z,10.53
2023-03-31T06:19:37.078Z,10.54
2023-03-31T06:20:39.022Z,10.54
2023-03-31T06:21:41.489Z,10.55
2023-03-31T06:22:43.442Z,10.55
2023-03-31T06:23:45.795Z,10.55
2023-03-31T06:24:49.350Z,10.56
2023-03-31T06:25:52.586Z,10.56
2023-03-31T06:26:55.198Z,10.56
2023-03-31T06:27:57.231Z,10.57
2023-03-31T06:28:59.203Z,10.57
2023-03-31T06:30:01.764Z,10.58
2023-03-31T06:31:06.545Z,10.58
2023-03-31T06:32:10.210Z,10.59
2023-03-31T06:33:12.277Z,10.59
2023-03-31T06:34:14.249Z,10.59
2023-03-31T06:35:17.123Z,10.60
2023-03-31T06:36:21.214Z,10.60
2023-03-31T06:37:23.523Z,10.61
2023-03-31T06:38:25.485Z,10.61
2023-03-31T06:39:28.276Z,10.62
2023-03-31T06:40:30.446Z,10.63
2023-03-31T06:41:32.331Z,10.64
2023-03-31T06:42:36.517Z,10.64
2023-03-31T06:43:38.750Z,10.65
2023-03-31T06:44:40.836Z,10.66
2023-03-31T06:45:43.024Z,10.66
2023-03-31T06:46:45.544Z,10.67
2023-03-31T06:47:49.642Z,10.67
2023-03-31T06:48:52.162Z,10.69
2023-03-31T06:49:54.109Z,10.70
2023-03-31T06:50:58.668Z,10.70
2023-03-31T06:52:00.864Z,10.71
2023-03-31T06:53:03.293Z,10.73
2023-03-31T06:54:05.886Z,10.73
2023-03-31T06:55:08.929Z,10.74
2023-03-31T06:56:11.739Z,10.74
2023-03-31T06:57:13.829Z,10.74
2023-03-31T06:58:16.192Z,10.75
2023-03-31T06:59:18.139Z,10.76
2023-03-31T07:00:23.173Z,10.77
2023-03-31T07:01:25.640Z,10.78
2023-03-31T07:02:27.864Z,10.78
2023-03-31T07:03:31.090Z,10.78
2023-03-31T07:04:33.243Z,10.80
2023-03-31T07:05:35.211Z,10.80
2023-03-31T07:06:37.324Z,10.80
2023-03-31T07:07:39.455Z,10.81
2023-03-31T07:08:42.045Z,10.82
2023-03-31T07:09:43.999Z,10.82
2023-03-31T07:10:46.059Z,10.84
2023-03-31T07:11:48.316Z,10.84
2023-03-31T07:12:50.898Z,10.86
2023-03-31T07:13:52.845Z,10.87
2023-03-31T07:14:56.045Z,10.88
2023-03-31T07:15:58.071Z,10.89
2023-03-31T07:17:00.734Z,10.90
2023-03-31T07:18:02.920Z,10.90
2023-03-31T07:19:06.780Z,10.92
2023-03-31T07:20:10.935Z,10.92
2023-03-31T07:21:13.289Z,10.93
2023-03-31T07:22:15.678Z,10.94
2023-03-31T07:23:18.975Z,10.95
2023-03-31T07:24:21.653Z,10.96
2023-03-31T07:25:25.268Z,10.98
2023-03-31T07:26:28.906Z,10.98
2023-03-31T07:27:34.809Z,10.99
2023-03-31T07:28:37.287Z,11.00
2023-03-31T07:29:43.135Z,11.01
2023-03-31T07:30:45.677Z,11.02
2023-03-31T07:31:51.863Z,11.02
2023-03-31T07:32:54.143Z,11.04
2023-03-31T07:33:58.925Z,11.05
2023-03-31T07:35:00.909Z,11.05
2023-03-31T07:36:11.576Z,11.07
2023-03-31T07:37:12.522Z,11.08
2023-03-31T07:38:15.033Z,11.09
2023-03-31T07:39:17.142Z,11.10
2023-03-31T07:40:24.971Z,11.11
2023-03-31T07:41:27.459Z,11.11
2023-03-31T07:42:31.032Z,11.13
2023-03-31T07:43:34.762Z,11.13
2023-03-31T07:44:36.944Z,11.14
2023-03-31T07:45:43.847Z,11.16
2023-03-31T07:46:49.600Z,11.17
2023-03-31T07:47:53.524Z,11.18
2023-03-31T07:49:00.928Z,11.19
2023-03-31T07:50:06.219Z,11.20
2023-03-31T07:51:08.707Z,11.21
2023-03-31T07:52:12.107Z,11.21
2023-03-31T07:53:14.782Z,11.24
2023-03-31T07:54:19.529Z,11.25
2023-03-31T07:55:23.407Z,11.25
2023-03-31T07:56:28.713Z,11.27
2023-03-31T07:57:37.032Z,11.29
2023-03-31T07:58:39.404Z,11.29
2023-03-31T07:59:43.356Z,11.31
2023-03-31T08:00:46.413Z,11.33
2023-03-31T08:01:48.466Z,11.35
2023-03-31T08:02:50.918Z,11.36
2023-03-31T08:03:53.380Z,11.38
2023-03-31T08:04:55.503Z,11.39
2023-03-31T08:05:57.519Z,11.40
2023-03-31T08:06:59.458Z,11.42
2023-03-31T08:08:01.520Z,11.45
2023-03-31T08:09:05.448Z,11.49
2023-03-31T08:10:09.736Z,11.52
2023-03-31T08:11:11.823Z,11.55
2023-03-31T08:12:14.398Z,11.58
2023-03-31T08:13:19.588Z,11.61
2023-03-31T08:14:34.213Z,11.64
2023-03-31T08:15:28.925Z,11.66
2023-03-31T08:16:30.979Z,11.70
2023-03-31T08:17:38.556Z,11.73
2023-03-31T08:18:40.586Z,11.77
2023-03-31T08:19:42.547Z,11.80
2023-03-31T08:20:47.758Z,11.84
2023-03-31T08:21:53.399Z,11.88
2023-03-31T08:22:55.928Z,11.91
2023-03-31T08:24:04.377Z,11.96
2023-03-31T08:25:07.450Z,11.99
2023-03-31T08:27:30.505Z,12.17
2023-03-31T08:28:34.513Z,12.11
2023-03-31T08:29:36.870Z,12.15
2023-03-31T08:30:42.124Z,12.19
2023-03-31T08:31:44.624Z,12.23
2023-03-31T08:32:51.165Z,12.28
2023-03-31T08:33:53.232Z,12.33
2023-03-31T08:34:55.223Z,12.37
2023-03-31T08:36:06.380Z,12.40
2023-03-31T08:37:10.089Z,12.42
2023-03-31T08:38:12.656Z,12.46
2023-03-31T08:39:16.203Z,12.49
2023-03-31T08:40:22.521Z,12.50
2023-03-31T08:41:57.722Z,12.52
2023-03-31T08:44:22.461Z,12.66
2023-03-31T08:45:29.279Z,12.57
2023-03-31T08:46:32.075Z,12.58
2023-03-31T08:47:37.213Z,12.57
2023-03-31T08:48:44.978Z,12.59
2023-03-31T08:49:54.510Z,12.59
2023-03-31T08:51:09.487Z,12.60
2023-03-31T08:53:29.434Z,12.71
2023-03-31T08:55:52.310Z,12.71
2023-03-31T08:56:54.846Z,12.63
2023-03-31T08:58:20.411Z,12.63
2023-03-31T08:59:33.465Z,12.64
2023-03-31T09:00:39.850Z,12.64
2023-03-31T09:02:14.771Z,12.65
2023-03-31T09:03:46.767Z,12.65
2023-03-31T09:05:11.595Z,12.67
2023-03-31T09:06:15.667Z,12.66
2023-03-31T09:08:43.935Z,12.77
2023-03-31T09:10:10.347Z,12.65
2023-03-31T09:11:21.158Z,12.64
2023-03-31T09:12:48.303Z,12.65
2023-03-31T09:14:06.026Z,12.65
2023-03-31T09:15:21.168Z,12.65
2023-03-31T09:16:46.859Z,12.64
2023-03-31T09:17:48.930Z,12.64
2023-03-31T09:18:53.640Z,12.65
2023-03-31T09:19:58.979Z,12.65
2023-03-31T09:21:13.665Z,12.65
2023-03-31T09:25:19.871Z,12.73
2023-03-31T09:27:40.139Z,12.77
2023-03-31T09:28:43.214Z,12.67
2023-03-31T09:29:52.980Z,12.68
2023-03-31T09:30:55.556Z,12.68
2023-03-31T09:33:29.262Z,12.80
2023-03-31T09:34:38.621Z,12.72
2023-03-31T09:35:45.852Z,12.72
2023-03-31T09:36:47.777Z,12.75
2023-03-31T09:37:50.218Z,12.78
2023-03-31T09:38:52.218Z,12.80
2023-03-31T09:39:54.426Z,12.80
2023-03-31T09:41:03.415Z,12.83
2023-03-31T09:42:05.543Z,12.83
2023-03-31T09:44:40.867Z,12.94
2023-03-31T09:45:57.694Z,12.85
2023-03-31T09:46:49.330Z,12.85
2023-03-31T09:47:55.779Z,12.86
2023-03-31T09:50:15.942Z,12.98
2023-03-31T09:51:27.587Z,12.88
2023-03-31T09:52:34.231Z,12.91
2023-03-31T09:53:48.577Z,12.91
2023-03-31T09:54:51.410Z,12.92
2023-03-31T09:57:14.109Z,13.07
2023-03-31T09:58:16.901Z,12.96
2023-03-31T09:59:20.810Z,12.98
2023-03-31T10:00:28.618Z,12.99
2023-03-31T10:01:32.569Z,13.00
2023-03-31T10:02:37.961Z,13.02
2023-03-31T10:03:53.803Z,13.03
2023-03-31T10:04:58.063Z,13.03
2023-03-31T10:07:22.349Z,13.17
2023-03-31T10:09:02.601Z,13.06
2023-03-31T10:10:09.183Z,13.07
2023-03-31T10:11:15.254Z,13.08
2023-03-31T10:12:30.334Z,13.08
2023-03-31T10:15:28.212Z,13.21
2023-03-31T10:18:15.028Z,13.24
2023-03-31T10:20:50.752Z,13.23
2023-03-31T10:23:28.111Z,13.25
2023-03-31T10:25:50.916Z,13.26
2023-03-31T10:26:55.527Z,13.17
2023-03-31T10:27:59.804Z,13.17
2023-03-31T10:29:02.377Z,13.19
2023-03-31T10:30:07.345Z,13.18
2023-03-31T10:31:11.411Z,13.20
2023-03-31T10:32:20.623Z,13.20
2023-03-31T10:33:28.143Z,13.21
2023-03-31T10:34:31.852Z,13.22
2023-03-31T10:35:36.670Z,13.24
2023-03-31T10:36:39.956Z,13.24
2023-03-31T10:37:41.894Z,13.25
2023-03-31T10:38:45.501Z,13.26
2023-03-31T10:39:52.199Z,13.27
2023-03-31T10:40:56.267Z,13.28
2023-03-31T10:42:00.459Z,13.28
2023-03-31T10:43:15.223Z,13.30
2023-03-31T10:44:37.591Z,13.31
2023-03-31T10:47:19.498Z,13.43
2023-03-31T10:48:29.452Z,13.32
2023-03-31T10:49:35.783Z,13.34
2023-03-31T10:50:38.039Z,13.36
2023-03-31T10:51:48.258Z,13.36
2023-03-31T10:52:50.841Z,13.36
2023-03-31T10:53:54.191Z,13.36
2023-03-31T10:56:39.995Z,13.48
2023-03-31T11:00:31.789Z,13.52
2023-03-31T11:03:09.101Z,13.55
2023-03-31T11:04:27.353Z,13.44
2023-03-31T11:05:42.621Z,13.45
2023-03-31T11:07:21.033Z,13.47
2023-03-31T11:08:46.972Z,13.47
2023-03-31T11:10:12.323Z,13.47
2023-03-31T11:11:33.678Z,13.46
2023-03-31T11:12:59.076Z,13.45
2023-03-31T11:15:32.665Z,13.55
2023-03-31T11:16:54.112Z,13.44
2023-03-31T11:19:43.209Z,13.55
2023-03-31T11:21:18.361Z,13.44
2023-03-31T11:22:30.994Z,13.45
2023-03-31T11:23:45.228Z,13.45
2023-03-31T11:25:02.960Z,13.45
2023-03-31T11:26:12.461Z,13.45
2023-03-31T11:27:30.220Z,13.45
2023-03-31T11:28:41.894Z,13.46
2023-03-31T11:29:50.255Z,13.46
2023-03-31T11:31:05.482Z,13.47
2023-03-31T11:32:23.708Z,13.47
2023-03-31T11:33:39.143Z,13.47
2023-03-31T11:34:40.801Z,13.48
2023-03-31T11:36:18.346Z,13.49
2023-03-31T11:39:16.439Z,13.60
2023-03-31T11:40:40.995Z,13.50
2023-03-31T11:43:17.341Z,13.63
2023-03-31T11:44:19.336Z,13.52
2023-03-31T11:45:24.579Z,13.53
2023-03-31T11:46:30.267Z,13.53
2023-03-31T11:47:34.666Z,13.55
2023-03-31T11:48:58.691Z,13.55
2023-03-31T11:50:10.316Z,13.57
2023-03-31T11:51:19.055Z,13.59
2023-03-31T11:54:51.133Z,13.60
2023-03-31T11:55:53.141Z,13.60
2023-03-31T11:56:56.167Z,13.62
2023-03-31T11:58:06.739Z,13.62
2023-03-31T11:59:14.689Z,13.63
2023-03-31T12:00:27.826Z,13.65
2023-03-31T12:01:39.634Z,13.66
2023-03-31T12:03:11.670Z,13.66
2023-03-31T12:04:37.067Z,13.66
2023-03-31T12:05:48.302Z,13.67
2023-03-31T12:06:51.362Z,13.67
2023-03-31T12:08:09.312Z,13.67
2023-03-31T12:09:15.560Z,13.68
2023-03-31T12:11:41.615Z,13.79
2023-03-31T12:12:47.065Z,13.69
2023-03-31T12:14:10.008Z,13.70
2023-03-31T12:15:22.302Z,13.71
2023-03-31T12:16:33.858Z,13.72
2023-03-31T12:17:36.941Z,13.73
2023-03-31T12:20:06.215Z,13.85
2023-03-31T12:21:08.753Z,13.74
2023-03-31T12:22:29.992Z,13.75
2023-03-31T12:26:25.620Z,13.78
2023-03-31T12:27:31.504Z,13.77
2023-03-31T12:28:34.790Z,13.79
2023-03-31T12:29:41.095Z,13.80
2023-03-31T12:30:49.196Z,13.80
2023-03-31T12:31:58.500Z,13.81
2023-03-31T12:33:20.002Z,13.80
2023-03-31T12:34:22.005Z,13.80
2023-03-31T12:35:31.200Z,13.81
2023-03-31T12:36:55.675Z,13.82
2023-03-31T12:38:18.162Z,13.83
2023-03-31T12:39:32.692Z,13.85
2023-03-31T12:42:43.062Z,13.98
2023-03-31T12:44:00.319Z,13.88
2023-03-31T12:45:16.302Z,13.88
2023-03-31T12:46:45.737Z,13.86
2023-03-31T12:47:54.878Z,13.86
2023-03-31T12:49:24.945Z,13.86
2023-03-31T12:51:01.254Z,13.87
2023-03-31T12:52:19.541Z,13.87
2023-03-31T12:53:31.204Z,13.87
2023-03-31T12:55:13.196Z,13.86
2023-03-31T12:56:15.470Z,13.85
2023-03-31T12:57:22.636Z,13.85
2023-03-31T13:00:08.826Z,13.96
2023-03-31T13:01:15.970Z,13.85
2023-03-31T13:02:28.621Z,13.83
2023-03-31T13:03:47.145Z,13.84
2023-03-31T13:04:49.137Z,13.84
2023-03-31T13:05:52.946Z,13.83
2023-03-31T13:06:58.130Z,13.85
2023-03-31T13:08:03.465Z,13.87
2023-03-31T13:09:18.621Z,13.87
2023-03-31T13:10:28.940Z,13.89
2023-03-31T13:11:38.860Z,13.88
2023-03-31T13:14:19.358Z,14.01
2023-03-31T13:15:25.322Z,13.93
2023-03-31T13:16:33.792Z,13.97
2023-03-31T13:17:44.557Z,14.01
2023-03-31T13:20:31.542Z,14.25
2023-03-31T13:23:05.773Z,14.43
2023-03-31T13:24:08.335Z,14.38
2023-03-31T13:26:48.621Z,14.60
2023-03-31T13:27:51.050Z,14.50
2023-03-31T13:29:17.591Z,14.54
2023-03-31T13:30:46.602Z,14.55
2023-03-31T13:32:06.762Z,14.57
2023-03-31T13:33:43.728Z,14.58
2023-03-31T13:35:05.866Z,14.57
2023-03-31T13:37:58.815Z,14.67
2023-03-31T13:39:36.290Z,14.57
2023-03-31T13:42:14.769Z,14.66
2023-03-31T13:43:31.330Z,14.56
2023-03-31T13:44:38.542Z,14.55
2023-03-31T13:45:54.958Z,14.53
2023-03-31T13:47:22.520Z,14.51
2023-03-31T13:48:42.673Z,14.50
2023-03-31T13:50:15.161Z,14.48
2023-03-31T13:51:41.462Z,14.47
2023-03-31T13:53:22.490Z,14.46
2023-03-31T13:58:29.470Z,14.46
2023-03-31T13:59:43.929Z,14.33
2023-03-31T14:03:01.205Z,14.35
2023-03-31T14:04:34.589Z,14.23
2023-03-31T14:06:02.755Z,14.21
2023-03-31T14:08:37.326Z,14.25
2023-03-31T14:09:48.485Z,14.12
2023-03-31T14:10:57.688Z,14.10
2023-03-31T14:13:19.506Z,14.17
2023-03-31T14:14:24.092Z,14.07
2023-03-31T14:15:26.156Z,14.06
2023-03-31T14:16:29.161Z,14.05
2023-03-31T14:17:37.432Z,14.05
2023-03-31T14:18:43.401Z,14.04
2023-03-31T14:19:58.020Z,14.05
2023-03-31T14:21:13.035Z,14.04
2023-03-31T14:22:32.417Z,14.03
2023-03-31T14:23:57.297Z,14.04
2023-03-31T14:25:16.355Z,14.03
2023-03-31T14:26:37.633Z,14.02
2023-03-31T14:27:52.804Z,14.00
2023-03-31T14:29:08.550Z,13.99
2023-03-31T14:30:38.993Z,13.97
2023-03-31T14:31:45.194Z,13.96
2023-03-31T14:33:13.967Z,13.96
2023-03-31T14:34:43.344Z,13.95
2023-03-31T14:37:05.139Z,14.04
2023-03-31T14:39:23.969Z,14.02
2023-03-31T14:40:26.461Z,13.92
2023-03-31T14:41:31.450Z,13.93
2023-03-31T14:42:41.777Z,13.94
2023-03-31T14:43:49.687Z,13.95
2023-03-31T14:45:00.899Z,13.96
2023-03-31T14:47:28.678Z,14.08
2023-03-31T14:48:40.530Z,13.97
2023-03-31T14:51:14.301Z,14.08
2023-03-31T14:52:19.111Z,13.97
2023-03-31T14:53:26.086Z,13.96
2023-03-31T14:54:33.658Z,13.96
2023-03-31T14:55:54.431Z,13.96
2023-03-31T14:56:42.155Z,13.96
2023-03-31T14:57:46.721Z,13.96
2023-03-31T14:58:51.610Z,13.96
2023-03-31T14:59:58.738Z,13.95
2023-03-31T15:01:04.877Z,13.93
2023-03-31T15:02:10.628Z,13.93
2023-03-31T15:03:13.851Z,13.94
2023-03-31T15:04:20.442Z,13.92
2023-03-31T15:05:31.299Z,13.92
2023-03-31T15:06:33.300Z,13.92
2023-03-31T15:08:50.318Z,14.00
2023-03-31T15:10:11.355Z,13.88
2023-03-31T15:12:19.538Z,13.96
2023-03-31T15:14:04.915Z,13.86
2023-03-31T15:15:06.512Z,13.85
2023-03-31T15:16:30.287Z,13.85
2023-03-31T15:17:38.850Z,13.88
2023-03-31T15:18:40.900Z,13.90
2023-03-31T15:19:43.260Z,13.91
2023-03-31T15:20:50.556Z,13.92
2023-03-31T15:23:23.076Z,13.98
2023-03-31T15:27:37.026Z,13.95
2023-03-31T15:28:42.827Z,13.82
2023-03-31T15:29:51.834Z,13.83
2023-03-31T15:31:09.562Z,13.83
2023-03-31T15:32:00.910Z,13.84
2023-03-31T15:33:18.853Z,13.81
2023-03-31T15:35:36.943Z,13.92
2023-03-31T15:36:40.774Z,13.81
2023-03-31T15:37:44.466Z,13.80
2023-03-31T15:38:46.526Z,13.81
2023-03-31T15:39:49.708Z,13.80
2023-03-31T15:40:55.778Z,13.80
2023-03-31T15:41:59.193Z,13.79
2023-03-31T15:43:20.273Z,13.78
2023-03-31T15:44:44.219Z,13.77
2023-03-31T15:45:48.438Z,13.75
2023-03-31T15:47:00.919Z,13.73
2023-03-31T15:48:08.265Z,13.72
2023-03-31T15:49:20.727Z,13.70
2023-03-31T15:50:25.810Z,13.70
2023-03-31T15:51:39.615Z,13.69
2023-03-31T15:53:59.298Z,13.78
2023-03-31T15:55:29.695Z,13.67
2023-03-31T15:56:36.066Z,13.66
2023-03-31T15:57:38.671Z,13.66
2023-03-31T15:59:59.473Z,13.73
2023-03-31T16:01:06.888Z,13.62
2023-03-31T16:02:16.502Z,13.62
2023-03-31T16:03:25.377Z,13.61
2023-03-31T16:04:32.205Z,13.60
2023-03-31T16:05:53.676Z,13.59
2023-03-31T16:07:08.300Z,13.58
2023-03-31T16:09:40.783Z,13.66
2023-03-31T16:10:43.460Z,13.53